sensor_id;sensor_type;location;lat;lon;timestamp;temperature;humidity
40534;DHT22;26233;51.894;10.192;2023-12-07T00:01:43;5.40;56.00
40534;DHT22;26233;51.894;10.192;2023-12-07T00:04:10;5.40;56.10
40534;DHT22;26233;51.894;10.192;2023-12-07T00:06:37;5.50;56.20
40534;DHT22;26233;51.894;10.192;2023-12-07T00:09:04;5.50;56.10
40534;DHT22;26233;51.894;10.192;2023-12-07T00:11:31;5.50;56.20
40534;DHT22;26233;51.894;10.192;2023-12-07T00:13:58;5.50;56.10
40534;DHT22;26233;51.894;10.192;2023-12-07T00:16:25;5.50;56.10
40534;DHT22;26233;51.894;10.192;2023-12-07T00:18:52;5.50;56.20
40534;DHT22;26233;51.894;10.192;2023-12-07T00:21:19;5.50;56.20
40534;DHT22;26233;51.894;10.192;2023-12-07T00:23:46;5.50;56.20
40534;DHT22;26233;51.894;10.192;2023-12-07T00:26:13;5.50;56.10
40534;DHT22;26233;51.894;10.192;2023-12-07T00:28:42;5.50;56.10
40534;DHT22;26233;51.894;10.192;2023-12-07T00:31:09;5.60;56.10
40534;DHT22;26233;51.894;10.192;2023-12-07T00:33:37;5.60;56.10
40534;DHT22;26233;51.894;10.192;2023-12-07T00:36:04;5.60;56.10
40534;DHT22;26233;51.894;10.192;2023-12-07T00:38:31;5.60;56.10
40534;DHT22;26233;51.894;10.192;2023-12-07T00:40:58;5.60;56.10
40534;DHT22;26233;51.894;10.192;2023-12-07T00:43:25;5.60;56.10
40534;DHT22;26233;51.894;10.192;2023-12-07T00:45:54;5.60;56.10
40534;DHT22;26233;51.894;10.192;2023-12-07T00:48:21;5.60;56.10
40534;DHT22;26233;51.894;10.192;2023-12-07T00:50:48;5.60;56.10
40534;DHT22;26233;51.894;10.192;2023-12-07T00:53:15;5.60;56.10
40534;DHT22;26233;51.894;10.192;2023-12-07T00:55:42;5.70;56.20
40534;DHT22;26233;51.894;10.192;2023-12-07T00:58:09;5.70;56.20
40534;DHT22;26233;51.894;10.192;2023-12-07T01:00:36;5.60;56.10
40534;DHT22;26233;51.894;10.192;2023-12-07T01:03:04;5.70;56.20
40534;DHT22;26233;51.894;10.192;2023-12-07T01:05:31;5.70;56.20
40534;DHT22;26233;51.894;10.192;2023-12-07T01:07:58;5.70;56.10
40534;DHT22;26233;51.894;10.192;2023-12-07T01:10:25;5.70;56.10
40534;DHT22;26233;51.894;10.192;2023-12-07T01:12:52;5.70;56.70
40534;DHT22;26233;51.894;10.192;2023-12-07T01:15:19;5.80;56.20
40534;DHT22;26233;51.894;10.192;2023-12-07T01:17:46;5.70;56.10
40534;DHT22;26233;51.894;10.192;2023-12-07T01:20:15;5.70;56.00
40534;DHT22;26233;51.894;10.192;2023-12-07T01:22:42;5.70;56.00
40534;DHT22;26233;51.894;10.192;2023-12-07T01:25:11;5.70;56.00
40534;DHT22;26233;51.894;10.192;2023-12-07T01:27:42;5.70;56.00
40534;DHT22;26233;51.894;10.192;2023-12-07T01:30:10;5.70;56.00
40534;DHT22;26233;51.894;10.192;2023-12-07T01:32:37;5.70;56.00
40534;DHT22;26233;51.894;10.192;2023-12-07T01:35:05;5.70;56.00
40534;DHT22;26233;51.894;10.192;2023-12-07T01:37:34;5.60;56.00
40534;DHT22;26233;51.894;10.192;2023-12-07T01:40:01;5.70;56.00
40534;DHT22;26233;51.894;10.192;2023-12-07T01:42:31;5.70;56.10
40534;DHT22;26233;51.894;10.192;2023-12-07T01:44:58;5.70;56.00
40534;DHT22;26233;51.894;10.192;2023-12-07T01:47:25;5.70;56.00
40534;DHT22;26233;51.894;10.192;2023-12-07T01:49:52;5.70;56.00
40534;DHT22;26233;51.894;10.192;2023-12-07T01:52:21;5.70;56.00
40534;DHT22;26233;51.894;10.192;2023-12-07T01:54:50;5.60;56.00
40534;DHT22;26233;51.894;10.192;2023-12-07T01:57:17;5.60;55.80
40534;DHT22;26233;51.894;10.192;2023-12-07T01:59:44;5.60;55.90
40534;DHT22;26233;51.894;10.192;2023-12-07T02:02:11;5.60;56.00
40534;DHT22;26233;51.894;10.192;2023-12-07T02:04:38;5.60;56.00
40534;DHT22;26233;51.894;10.192;2023-12-07T02:07:06;5.60;56.00
40534;DHT22;26233;51.894;10.192;2023-12-07T02:09:34;5.70;56.10
40534;DHT22;26233;51.894;10.192;2023-12-07T02:12:03;5.60;56.00
40534;DHT22;26233;51.894;10.192;2023-12-07T02:14:30;5.70;56.00
40534;DHT22;26233;51.894;10.192;2023-12-07T02:17:06;5.60;55.80
40534;DHT22;26233;51.894;10.192;2023-12-07T02:19:48;5.60;55.80
40534;DHT22;26233;51.894;10.192;2023-12-07T02:22:25;5.60;55.80
40534;DHT22;26233;51.894;10.192;2023-12-07T02:25:09;5.60;55.80
40534;DHT22;26233;51.894;10.192;2023-12-07T02:27:39;5.60;55.90
40534;DHT22;26233;51.894;10.192;2023-12-07T02:30:07;5.60;55.80
40534;DHT22;26233;51.894;10.192;2023-12-07T02:32:36;5.60;55.80
40534;DHT22;26233;51.894;10.192;2023-12-07T02:35:04;5.60;55.90
40534;DHT22;26233;51.894;10.192;2023-12-07T02:37:35;5.60;55.90
40534;DHT22;26233;51.894;10.192;2023-12-07T02:40:06;5.60;55.90
40534;DHT22;26233;51.894;10.192;2023-12-07T02:42:38;5.60;55.90
40534;DHT22;26233;51.894;10.192;2023-12-07T02:45:07;5.60;56.00
40534;DHT22;26233;51.894;10.192;2023-12-07T02:47:35;5.60;55.90
40534;DHT22;26233;51.894;10.192;2023-12-07T02:50:03;5.60;56.50
40534;DHT22;26233;51.894;10.192;2023-12-07T02:52:33;5.60;55.90
40534;DHT22;26233;51.894;10.192;2023-12-07T02:55:01;5.60;55.90
40534;DHT22;26233;51.894;10.192;2023-12-07T02:57:28;5.60;55.80
40534;DHT22;26233;51.894;10.192;2023-12-07T02:59:56;5.60;55.80
40534;DHT22;26233;51.894;10.192;2023-12-07T03:02:23;5.60;55.80
40534;DHT22;26233;51.894;10.192;2023-12-07T03:04:50;5.60;55.80
40534;DHT22;26233;51.894;10.192;2023-12-07T03:07:17;5.60;55.80
40534;DHT22;26233;51.894;10.192;2023-12-07T03:09:44;5.60;55.80
40534;DHT22;26233;51.894;10.192;2023-12-07T03:12:11;5.60;55.90
40534;DHT22;26233;51.894;10.192;2023-12-07T03:14:39;5.50;55.80
40534;DHT22;26233;51.894;10.192;2023-12-07T03:17:07;5.50;55.80
40534;DHT22;26233;51.894;10.192;2023-12-07T03:19:37;5.50;55.90
40534;DHT22;26233;51.894;10.192;2023-12-07T03:22:04;5.50;55.80
40534;DHT22;26233;51.894;10.192;2023-12-07T03:24:32;5.60;56.00
40534;DHT22;26233;51.894;10.192;2023-12-07T03:26:59;5.50;55.90
40534;DHT22;26233;51.894;10.192;2023-12-07T03:29:26;5.60;55.90
40534;DHT22;26233;51.894;10.192;2023-12-07T03:31:53;5.60;55.90
40534;DHT22;26233;51.894;10.192;2023-12-07T03:34:21;5.60;55.90
40534;DHT22;26233;51.894;10.192;2023-12-07T03:36:48;5.60;55.90
40534;DHT22;26233;51.894;10.192;2023-12-07T03:39:16;5.60;55.90
40534;DHT22;26233;51.894;10.192;2023-12-07T03:41:44;5.60;55.80
40534;DHT22;26233;51.894;10.192;2023-12-07T03:44:11;5.60;55.80
40534;DHT22;26233;51.894;10.192;2023-12-07T03:46:38;5.60;55.80
40534;DHT22;26233;51.894;10.192;2023-12-07T03:49:05;5.60;55.80
40534;DHT22;26233;51.894;10.192;2023-12-07T03:51:34;5.60;55.80
40534;DHT22;26233;51.894;10.192;2023-12-07T03:54:02;5.50;55.70
40534;DHT22;26233;51.894;10.192;2023-12-07T03:56:30;5.50;55.70
40534;DHT22;26233;51.894;10.192;2023-12-07T03:58:57;5.50;55.70
40534;DHT22;26233;51.894;10.192;2023-12-07T04:01:25;5.50;55.70
40534;DHT22;26233;51.894;10.192;2023-12-07T04:03:54;5.50;55.70
40534;DHT22;26233;51.894;10.192;2023-12-07T04:06:22;5.50;55.80
40534;DHT22;26233;51.894;10.192;2023-12-07T04:08:51;5.50;55.70
40534;DHT22;26233;51.894;10.192;2023-12-07T04:11:18;5.50;55.70
40534;DHT22;26233;51.894;10.192;2023-12-07T04:13:45;5.50;55.70
40534;DHT22;26233;51.894;10.192;2023-12-07T04:16:12;5.50;55.70
40534;DHT22;26233;51.894;10.192;2023-12-07T04:18:39;5.50;55.70
40534;DHT22;26233;51.894;10.192;2023-12-07T04:21:06;5.50;55.70
40534;DHT22;26233;51.894;10.192;2023-12-07T04:23:33;5.50;55.70
40534;DHT22;26233;51.894;10.192;2023-12-07T04:26:02;5.50;55.70
40534;DHT22;26233;51.894;10.192;2023-12-07T04:28:29;5.50;55.60
40534;DHT22;26233;51.894;10.192;2023-12-07T04:30:56;5.40;55.60
40534;DHT22;26233;51.894;10.192;2023-12-07T04:33:23;5.40;55.60
40534;DHT22;26233;51.894;10.192;2023-12-07T04:35:50;5.40;55.60
40534;DHT22;26233;51.894;10.192;2023-12-07T04:38:17;5.40;55.60
40534;DHT22;26233;51.894;10.192;2023-12-07T04:40:45;5.40;55.70
40534;DHT22;26233;51.894;10.192;2023-12-07T04:43:13;5.40;55.70
40534;DHT22;26233;51.894;10.192;2023-12-07T04:45:40;5.40;55.70
40534;DHT22;26233;51.894;10.192;2023-12-07T04:48:07;5.40;55.70
40534;DHT22;26233;51.894;10.192;2023-12-07T04:50:34;5.50;55.80
40534;DHT22;26233;51.894;10.192;2023-12-07T04:53:01;5.50;55.80
40534;DHT22;26233;51.894;10.192;2023-12-07T04:55:28;5.50;56.40
40534;DHT22;26233;51.894;10.192;2023-12-07T04:57:55;5.50;55.80
40534;DHT22;26233;51.894;10.192;2023-12-07T05:00:24;5.50;56.40
40534;DHT22;26233;51.894;10.192;2023-12-07T05:02:51;5.50;55.70
40534;DHT22;26233;51.894;10.192;2023-12-07T05:05:18;5.30;55.60
40534;DHT22;26233;51.894;10.192;2023-12-07T05:07:45;5.50;55.70
40534;DHT22;26233;51.894;10.192;2023-12-07T05:10:12;5.50;55.70
40534;DHT22;26233;51.894;10.192;2023-12-07T05:12:40;5.50;55.70
40534;DHT22;26233;51.894;10.192;2023-12-07T05:15:07;5.40;55.60
40534;DHT22;26233;51.894;10.192;2023-12-07T05:17:36;5.40;55.60
40534;DHT22;26233;51.894;10.192;2023-12-07T05:20:04;5.50;55.70
40534;DHT22;26233;51.894;10.192;2023-12-07T05:22:32;5.40;55.70
40534;DHT22;26233;51.894;10.192;2023-12-07T05:24:59;5.40;55.70
40534;DHT22;26233;51.894;10.192;2023-12-07T05:27:26;5.50;55.80
40534;DHT22;26233;51.894;10.192;2023-12-07T05:29:53;5.50;55.80
40534;DHT22;26233;51.894;10.192;2023-12-07T05:32:21;5.50;55.80
40534;DHT22;26233;51.894;10.192;2023-12-07T05:34:49;5.50;55.70
40534;DHT22;26233;51.894;10.192;2023-12-07T05:37:16;5.50;55.70
40534;DHT22;26233;51.894;10.192;2023-12-07T05:39:43;5.40;55.60
40534;DHT22;26233;51.894;10.192;2023-12-07T05:42:10;5.50;55.80
40534;DHT22;26233;51.894;10.192;2023-12-07T05:44:37;5.40;55.70
40534;DHT22;26233;51.894;10.192;2023-12-07T05:47:04;5.50;55.80
40534;DHT22;26233;51.894;10.192;2023-12-07T05:49:33;5.50;55.80
40534;DHT22;26233;51.894;10.192;2023-12-07T05:52:02;5.50;55.80
40534;DHT22;26233;51.894;10.192;2023-12-07T05:54:29;5.50;55.80
40534;DHT22;26233;51.894;10.192;2023-12-07T05:56:56;5.50;55.80
40534;DHT22;26233;51.894;10.192;2023-12-07T05:59:23;5.60;55.80
40534;DHT22;26233;51.894;10.192;2023-12-07T06:01:51;5.50;56.00
40534;DHT22;26233;51.894;10.192;2023-12-07T06:04:19;5.50;55.70
40534;DHT22;26233;51.894;10.192;2023-12-07T06:06:46;5.50;55.70
40534;DHT22;26233;51.894;10.192;2023-12-07T06:09:14;5.50;55.70
40534;DHT22;26233;51.894;10.192;2023-12-07T06:11:41;5.50;55.70
40534;DHT22;26233;51.894;10.192;2023-12-07T06:14:08;5.50;55.70
40534;DHT22;26233;51.894;10.192;2023-12-07T06:16:35;5.50;55.70
40534;DHT22;26233;51.894;10.192;2023-12-07T06:19:02;5.50;55.70
40534;DHT22;26233;51.894;10.192;2023-12-07T06:21:30;5.50;55.70
40534;DHT22;26233;51.894;10.192;2023-12-07T06:23:57;5.50;55.70
40534;DHT22;26233;51.894;10.192;2023-12-07T06:26:26;5.50;55.70
40534;DHT22;26233;51.894;10.192;2023-12-07T06:28:53;5.50;55.70
40534;DHT22;26233;51.894;10.192;2023-12-07T06:31:20;5.60;55.70
40534;DHT22;26233;51.894;10.192;2023-12-07T06:33:48;5.50;55.70
40534;DHT22;26233;51.894;10.192;2023-12-07T06:36:18;5.50;55.80
40534;DHT22;26233;51.894;10.192;2023-12-07T06:38:46;5.50;55.70
40534;DHT22;26233;51.894;10.192;2023-12-07T06:41:14;5.50;55.80
40534;DHT22;26233;51.894;10.192;2023-12-07T06:43:43;5.50;55.80
40534;DHT22;26233;51.894;10.192;2023-12-07T06:46:11;5.50;55.80
40534;DHT22;26233;51.894;10.192;2023-12-07T06:48:38;5.50;55.80
40534;DHT22;26233;51.894;10.192;2023-12-07T06:51:05;5.50;55.80
40534;DHT22;26233;51.894;10.192;2023-12-07T06:53:33;5.50;55.70
40534;DHT22;26233;51.894;10.192;2023-12-07T06:56:00;5.50;55.70
40534;DHT22;26233;51.894;10.192;2023-12-07T06:58:27;5.50;55.70
40534;DHT22;26233;51.894;10.192;2023-12-07T07:00:55;5.50;55.70
40534;DHT22;26233;51.894;10.192;2023-12-07T07:03:22;5.50;55.70
40534;DHT22;26233;51.894;10.192;2023-12-07T07:05:50;5.40;55.50
40534;DHT22;26233;51.894;10.192;2023-12-07T07:08:17;5.40;55.60
40534;DHT22;26233;51.894;10.192;2023-12-07T07:10:44;5.40;55.60
40534;DHT22;26233;51.894;10.192;2023-12-07T07:13:10;5.40;55.60
40534;DHT22;26233;51.894;10.192;2023-12-07T07:15:42;5.50;55.70
40534;DHT22;26233;51.894;10.192;2023-12-07T07:18:11;5.40;55.60
40534;DHT22;26233;51.894;10.192;2023-12-07T07:20:38;5.40;55.60
40534;DHT22;26233;51.894;10.192;2023-12-07T07:23:05;5.40;55.60
40534;DHT22;26233;51.894;10.192;2023-12-07T07:25:33;5.40;55.60
40534;DHT22;26233;51.894;10.192;2023-12-07T07:28:00;5.40;55.60
40534;DHT22;26233;51.894;10.192;2023-12-07T07:30:28;5.40;55.60
40534;DHT22;26233;51.894;10.192;2023-12-07T07:32:56;5.30;55.60
40534;DHT22;26233;51.894;10.192;2023-12-07T07:35:24;5.40;55.60
40534;DHT22;26233;51.894;10.192;2023-12-07T07:37:52;5.40;55.60
40534;DHT22;26233;51.894;10.192;2023-12-07T07:40:19;5.40;55.70
40534;DHT22;26233;51.894;10.192;2023-12-07T07:42:46;5.40;55.70
40534;DHT22;26233;51.894;10.192;2023-12-07T07:45:13;5.40;55.80
40534;DHT22;26233;51.894;10.192;2023-12-07T07:47:41;5.30;55.70
40534;DHT22;26233;51.894;10.192;2023-12-07T07:50:09;5.40;55.80
40534;DHT22;26233;51.894;10.192;2023-12-07T07:52:38;5.40;55.80
40534;DHT22;26233;51.894;10.192;2023-12-07T07:55:06;5.50;55.90
40534;DHT22;26233;51.894;10.192;2023-12-07T07:57:33;5.40;55.80
40534;DHT22;26233;51.894;10.192;2023-12-07T08:00:00;5.50;55.80
40534;DHT22;26233;51.894;10.192;2023-12-07T08:02:27;5.40;55.70
40534;DHT22;26233;51.894;10.192;2023-12-07T08:04:54;5.50;55.80
40534;DHT22;26233;51.894;10.192;2023-12-07T08:07:21;5.50;55.80
40534;DHT22;26233;51.894;10.192;2023-12-07T08:09:50;5.50;55.80
40534;DHT22;26233;51.894;10.192;2023-12-07T08:12:17;5.50;55.80
40534;DHT22;26233;51.894;10.192;2023-12-07T08:14:44;5.50;55.80
40534;DHT22;26233;51.894;10.192;2023-12-07T08:17:11;5.50;55.80
40534;DHT22;26233;51.894;10.192;2023-12-07T08:19:38;5.50;55.70
40534;DHT22;26233;51.894;10.192;2023-12-07T08:22:05;5.50;55.70
40534;DHT22;26233;51.894;10.192;2023-12-07T08:24:32;5.60;55.70
40534;DHT22;26233;51.894;10.192;2023-12-07T08:27:01;5.50;55.70
40534;DHT22;26233;51.894;10.192;2023-12-07T08:29:29;5.50;55.70
40534;DHT22;26233;51.894;10.192;2023-12-07T08:31:56;5.50;55.70
40534;DHT22;26233;51.894;10.192;2023-12-07T08:34:23;5.50;55.80
40534;DHT22;26233;51.894;10.192;2023-12-07T08:36:51;5.50;55.70
40534;DHT22;26233;51.894;10.192;2023-12-07T08:39:18;5.50;55.70
40534;DHT22;26233;51.894;10.192;2023-12-07T08:41:45;5.50;55.70
40534;DHT22;26233;51.894;10.192;2023-12-07T08:44:13;5.60;55.70
40534;DHT22;26233;51.894;10.192;2023-12-07T08:46:40;5.60;55.80
40534;DHT22;26233;51.894;10.192;2023-12-07T08:49:10;5.60;55.80
40534;DHT22;26233;51.894;10.192;2023-12-07T08:51:37;5.60;55.80
40534;DHT22;26233;51.894;10.192;2023-12-07T08:54:04;5.60;55.80
40534;DHT22;26233;51.894;10.192;2023-12-07T08:56:31;5.60;55.70
40534;DHT22;26233;51.894;10.192;2023-12-07T08:58:58;5.60;55.70
40534;DHT22;26233;51.894;10.192;2023-12-07T09:01:27;5.60;55.70
40534;DHT22;26233;51.894;10.192;2023-12-07T09:03:55;5.60;55.70
40534;DHT22;26233;51.894;10.192;2023-12-07T09:06:22;5.60;55.70
40534;DHT22;26233;51.894;10.192;2023-12-07T09:08:50;5.60;55.70
40534;DHT22;26233;51.894;10.192;2023-12-07T09:11:17;5.70;55.80
40534;DHT22;26233;51.894;10.192;2023-12-07T09:13:44;5.70;55.80
40534;DHT22;26233;51.894;10.192;2023-12-07T09:16:11;5.70;55.80
40534;DHT22;26233;51.894;10.192;2023-12-07T09:18:40;5.70;55.70
40534;DHT22;26233;51.894;10.192;2023-12-07T09:21:08;5.70;55.70
40534;DHT22;26233;51.894;10.192;2023-12-07T09:23:35;5.70;55.70
40534;DHT22;26233;51.894;10.192;2023-12-07T09:26:03;5.70;55.70
40534;DHT22;26233;51.894;10.192;2023-12-07T09:28:31;5.80;55.80
40534;DHT22;26233;51.894;10.192;2023-12-07T09:30:59;5.80;55.70
40534;DHT22;26233;51.894;10.192;2023-12-07T09:33:27;5.80;55.70
40534;DHT22;26233;51.894;10.192;2023-12-07T09:35:55;5.80;55.80
40534;DHT22;26233;51.894;10.192;2023-12-07T09:38:22;5.90;55.90
40534;DHT22;26233;51.894;10.192;2023-12-07T09:40:53;5.80;55.90
40534;DHT22;26233;51.894;10.192;2023-12-07T09:43:20;5.90;55.90
40534;DHT22;26233;51.894;10.192;2023-12-07T09:45:48;5.90;56.00
40534;DHT22;26233;51.894;10.192;2023-12-07T09:48:16;5.90;56.00
40534;DHT22;26233;51.894;10.192;2023-12-07T09:50:43;5.90;56.00
40534;DHT22;26233;51.894;10.192;2023-12-07T09:53:12;6.00;56.00
40534;DHT22;26233;51.894;10.192;2023-12-07T09:55:39;6.00;55.80
40534;DHT22;26233;51.894;10.192;2023-12-07T09:58:06;6.10;55.90
40534;DHT22;26233;51.894;10.192;2023-12-07T10:00:34;6.10;55.80
40534;DHT22;26233;51.894;10.192;2023-12-07T10:03:01;6.10;55.80
40534;DHT22;26233;51.894;10.192;2023-12-07T10:05:28;6.10;55.70
40534;DHT22;26233;51.894;10.192;2023-12-07T10:07:55;6.20;55.80
40534;DHT22;26233;51.894;10.192;2023-12-07T10:10:23;6.20;55.60
40534;DHT22;26233;51.894;10.192;2023-12-07T10:12:53;6.30;55.70
40534;DHT22;26233;51.894;10.192;2023-12-07T10:15:21;6.20;55.50
40534;DHT22;26233;51.894;10.192;2023-12-07T10:17:52;6.30;55.60
40534;DHT22;26233;51.894;10.192;2023-12-07T10:20:21;6.30;55.60
40534;DHT22;26233;51.894;10.192;2023-12-07T10:22:49;6.30;55.50
40534;DHT22;26233;51.894;10.192;2023-12-07T10:25:29;6.30;55.50
40534;DHT22;26233;51.894;10.192;2023-12-07T10:27:56;6.30;56.10
40534;DHT22;26233;51.894;10.192;2023-12-07T10:30:23;6.30;55.50
40534;DHT22;26233;51.894;10.192;2023-12-07T10:32:51;6.20;55.40
40534;DHT22;26233;51.894;10.192;2023-12-07T10:35:19;6.30;55.50
40534;DHT22;26233;51.894;10.192;2023-12-07T10:37:46;6.40;55.50
40534;DHT22;26233;51.894;10.192;2023-12-07T10:40:14;6.40;55.50
40534;DHT22;26233;51.894;10.192;2023-12-07T10:42:47;6.40;55.60
40534;DHT22;26233;51.894;10.192;2023-12-07T10:45:15;6.50;55.40
40534;DHT22;26233;51.894;10.192;2023-12-07T10:47:44;6.50;55.50
40534;DHT22;26233;51.894;10.192;2023-12-07T10:50:14;6.50;55.30
40534;DHT22;26233;51.894;10.192;2023-12-07T10:52:45;6.50;55.20
40534;DHT22;26233;51.894;10.192;2023-12-07T10:55:17;6.50;55.20
40534;DHT22;26233;51.894;10.192;2023-12-07T10:57:52;6.50;55.00
40534;DHT22;26233;51.894;10.192;2023-12-07T11:00:21;6.50;54.90
40534;DHT22;26233;51.894;10.192;2023-12-07T11:02:51;6.50;54.90
40534;DHT22;26233;51.894;10.192;2023-12-07T11:05:19;6.50;55.00
40534;DHT22;26233;51.894;10.192;2023-12-07T11:08:02;6.50;55.00
40534;DHT22;26233;51.894;10.192;2023-12-07T11:10:38;6.50;54.80
40534;DHT22;26233;51.894;10.192;2023-12-07T11:13:18;6.50;55.00
40534;DHT22;26233;51.894;10.192;2023-12-07T11:15:54;6.50;54.90
40534;DHT22;26233;51.894;10.192;2023-12-07T11:18:21;6.50;55.00
40534;DHT22;26233;51.894;10.192;2023-12-07T11:20:48;6.50;55.00
40534;DHT22;26233;51.894;10.192;2023-12-07T11:23:18;6.50;55.00
40534;DHT22;26233;51.894;10.192;2023-12-07T11:25:47;6.50;55.00
40534;DHT22;26233;51.894;10.192;2023-12-07T11:28:16;6.30;54.90
40534;DHT22;26233;51.894;10.192;2023-12-07T11:30:45;6.50;55.00
40534;DHT22;26233;51.894;10.192;2023-12-07T11:33:15;6.50;55.00
40534;DHT22;26233;51.894;10.192;2023-12-07T11:36:04;6.50;54.90
40534;DHT22;26233;51.894;10.192;2023-12-07T11:38:33;6.50;54.70
40534;DHT22;26233;51.894;10.192;2023-12-07T11:41:00;6.50;55.10
40534;DHT22;26233;51.894;10.192;2023-12-07T11:43:47;6.50;55.10
40534;DHT22;26233;51.894;10.192;2023-12-07T11:46:19;6.50;54.70
40534;DHT22;26233;51.894;10.192;2023-12-07T11:48:47;6.50;55.00
40534;DHT22;26233;51.894;10.192;2023-12-07T11:51:16;6.50;55.00
40534;DHT22;26233;51.894;10.192;2023-12-07T11:53:43;6.50;55.00
40534;DHT22;26233;51.894;10.192;2023-12-07T11:56:10;6.50;55.10
40534;DHT22;26233;51.894;10.192;2023-12-07T11:58:39;6.50;55.10
40534;DHT22;26233;51.894;10.192;2023-12-07T12:01:07;6.50;55.20
40534;DHT22;26233;51.894;10.192;2023-12-07T12:03:35;6.50;55.20
40534;DHT22;26233;51.894;10.192;2023-12-07T12:06:04;6.50;55.30
40534;DHT22;26233;51.894;10.192;2023-12-07T12:08:33;6.50;55.20
40534;DHT22;26233;51.894;10.192;2023-12-07T12:11:00;6.60;55.40
40534;DHT22;26233;51.894;10.192;2023-12-07T12:13:28;6.60;55.30
40534;DHT22;26233;51.894;10.192;2023-12-07T12:15:55;6.60;55.30
40534;DHT22;26233;51.894;10.192;2023-12-07T12:18:24;6.60;55.20
40534;DHT22;26233;51.894;10.192;2023-12-07T12:20:51;6.70;55.20
40534;DHT22;26233;51.894;10.192;2023-12-07T12:23:19;6.70;55.20
40534;DHT22;26233;51.894;10.192;2023-12-07T12:25:47;6.70;55.10
40534;DHT22;26233;51.894;10.192;2023-12-07T12:28:16;6.70;55.10
40534;DHT22;26233;51.894;10.192;2023-12-07T12:30:44;6.70;55.10
40534;DHT22;26233;51.894;10.192;2023-12-07T12:33:13;6.70;54.90
40534;DHT22;26233;51.894;10.192;2023-12-07T12:35:41;6.70;54.80
40534;DHT22;26233;51.894;10.192;2023-12-07T12:38:10;6.70;54.80
40534;DHT22;26233;51.894;10.192;2023-12-07T12:40:37;6.70;54.90
40534;DHT22;26233;51.894;10.192;2023-12-07T12:43:07;6.70;54.80
40534;DHT22;26233;51.894;10.192;2023-12-07T12:45:36;6.70;54.90
40534;DHT22;26233;51.894;10.192;2023-12-07T12:48:04;6.70;54.90
40534;DHT22;26233;51.894;10.192;2023-12-07T12:50:34;6.70;54.90
40534;DHT22;26233;51.894;10.192;2023-12-07T12:53:05;6.70;54.90
40534;DHT22;26233;51.894;10.192;2023-12-07T12:55:33;6.70;54.90
40534;DHT22;26233;51.894;10.192;2023-12-07T12:58:02;6.70;54.80
40534;DHT22;26233;51.894;10.192;2023-12-07T13:00:30;6.70;54.80
40534;DHT22;26233;51.894;10.192;2023-12-07T13:02:59;6.70;54.80
40534;DHT22;26233;51.894;10.192;2023-12-07T13:05:26;6.70;54.80
40534;DHT22;26233;51.894;10.192;2023-12-07T13:07:53;6.80;54.80
40534;DHT22;26233;51.894;10.192;2023-12-07T13:10:22;6.80;54.90
40534;DHT22;26233;51.894;10.192;2023-12-07T13:12:49;6.80;54.80
40534;DHT22;26233;51.894;10.192;2023-12-07T13:15:16;6.80;54.70
40534;DHT22;26233;51.894;10.192;2023-12-07T13:17:43;6.80;54.70
40534;DHT22;26233;51.894;10.192;2023-12-07T13:20:11;6.80;54.70
40534;DHT22;26233;51.894;10.192;2023-12-07T13:22:39;6.80;54.60
40534;DHT22;26233;51.894;10.192;2023-12-07T13:25:09;6.80;54.60
40534;DHT22;26233;51.894;10.192;2023-12-07T13:27:39;6.80;55.10
40534;DHT22;26233;51.894;10.192;2023-12-07T13:30:06;6.80;54.50
40534;DHT22;26233;51.894;10.192;2023-12-07T13:32:35;6.80;54.40
40534;DHT22;26233;51.894;10.192;2023-12-07T13:35:03;6.80;54.50
40534;DHT22;26233;51.894;10.192;2023-12-07T13:37:31;6.80;54.50
40534;DHT22;26233;51.894;10.192;2023-12-07T13:39:59;6.80;54.50
40534;DHT22;26233;51.894;10.192;2023-12-07T13:42:30;6.80;54.50
40534;DHT22;26233;51.894;10.192;2023-12-07T13:44:59;6.80;54.40
40534;DHT22;26233;51.894;10.192;2023-12-07T13:47:27;6.80;54.30
40534;DHT22;26233;51.894;10.192;2023-12-07T13:49:57;6.80;54.20
40534;DHT22;26233;51.894;10.192;2023-12-07T13:52:24;6.80;54.20
40534;DHT22;26233;51.894;10.192;2023-12-07T13:54:51;6.90;54.20
40534;DHT22;26233;51.894;10.192;2023-12-07T13:57:19;6.80;54.00
40534;DHT22;26233;51.894;10.192;2023-12-07T13:59:46;6.80;54.00
40534;DHT22;26233;51.894;10.192;2023-12-07T14:02:14;6.80;54.00
40534;DHT22;26233;51.894;10.192;2023-12-07T14:04:41;6.90;54.00
40534;DHT22;26233;51.894;10.192;2023-12-07T14:07:10;6.90;54.10
40534;DHT22;26233;51.894;10.192;2023-12-07T14:09:39;6.90;54.10
40534;DHT22;26233;51.894;10.192;2023-12-07T14:12:07;6.90;54.00
40534;DHT22;26233;51.894;10.192;2023-12-07T14:14:36;6.90;53.90
40534;DHT22;26233;51.894;10.192;2023-12-07T14:17:03;6.90;53.90
40534;DHT22;26233;51.894;10.192;2023-12-07T14:19:32;6.90;54.00
40534;DHT22;26233;51.894;10.192;2023-12-07T14:22:00;6.90;54.00
40534;DHT22;26233;51.894;10.192;2023-12-07T14:24:28;6.90;54.00
40534;DHT22;26233;51.894;10.192;2023-12-07T14:26:57;7.00;53.80
40534;DHT22;26233;51.894;10.192;2023-12-07T14:29:25;6.90;53.50
40534;DHT22;26233;51.894;10.192;2023-12-07T14:31:52;6.80;53.30
40534;DHT22;26233;51.894;10.192;2023-12-07T14:34:19;6.80;53.20
40534;DHT22;26233;51.894;10.192;2023-12-07T14:36:47;6.70;53.00
40534;DHT22;26233;51.894;10.192;2023-12-07T14:39:14;6.70;53.00
40534;DHT22;26233;51.894;10.192;2023-12-07T14:41:46;6.60;52.90
40534;DHT22;26233;51.894;10.192;2023-12-07T14:44:13;6.60;52.90
40534;DHT22;26233;51.894;10.192;2023-12-07T14:46:42;6.50;52.90
40534;DHT22;26233;51.894;10.192;2023-12-07T14:49:10;6.50;52.80
40534;DHT22;26233;51.894;10.192;2023-12-07T14:51:37;6.40;52.70
40534;DHT22;26233;51.894;10.192;2023-12-07T14:54:06;6.30;53.30
40534;DHT22;26233;51.894;10.192;2023-12-07T14:56:35;6.30;52.90
40534;DHT22;26233;51.894;10.192;2023-12-07T14:59:02;6.20;52.60
40534;DHT22;26233;51.894;10.192;2023-12-07T15:01:29;6.10;52.50
40534;DHT22;26233;51.894;10.192;2023-12-07T15:03:57;6.10;52.60
40534;DHT22;26233;51.894;10.192;2023-12-07T15:06:24;6.00;52.50
40534;DHT22;26233;51.894;10.192;2023-12-07T15:08:52;6.00;52.60
40534;DHT22;26233;51.894;10.192;2023-12-07T15:11:20;6.00;52.60
40534;DHT22;26233;51.894;10.192;2023-12-07T15:13:48;5.90;52.60
40534;DHT22;26233;51.894;10.192;2023-12-07T15:16:15;5.90;52.50
40534;DHT22;26233;51.894;10.192;2023-12-07T15:18:42;5.80;52.90
40534;DHT22;26233;51.894;10.192;2023-12-07T15:21:11;5.80;52.60
40534;DHT22;26233;51.894;10.192;2023-12-07T15:23:39;5.70;52.50
40534;DHT22;26233;51.894;10.192;2023-12-07T15:26:07;5.70;52.60
40534;DHT22;26233;51.894;10.192;2023-12-07T15:28:36;5.60;52.40
40534;DHT22;26233;51.894;10.192;2023-12-07T15:31:03;5.60;52.40
40534;DHT22;26233;51.894;10.192;2023-12-07T15:33:31;5.60;52.50
40534;DHT22;26233;51.894;10.192;2023-12-07T15:35:58;5.60;52.50